Time;durP1;ratioP1;P1;durP2;ratioP2;P2;SDS_P1;SDS_P2;PMS_P1;PMS_P2;Temp;Humidity;BMP_temperature;BMP_pressure;BME280_temperature;BME280_humidity;BME280_pressure;Samples;Min_cycle;Max_cycle;Signal;HPM_P1;HPM_P2
2022/08/11 00:00:52;;;;;;;5.03;1.60;;;23.90;99.90;;;;;;4149526;28;20553;-94
2022/08/11 00:02:54;;;;;;;7.78;1.25;;;23.90;99.90;;;;;;4132896;28;20185;-90
2022/08/11 00:05:00;;;;;;;2.22;1.10;;;23.90;99.90;;;;;;4133350;28;20182;-96
2022/08/11 00:07:03;;;;;;;4.72;1.50;;;23.90;99.90;;;;;;4132974;28;20332;-90
2022/08/11 00:09:07;;;;;;;6.28;1.42;;;23.90;99.90;;;;;;4133202;28;20170;-96
2022/08/11 00:11:11;;;;;;;3.28;1.60;;;23.90;99.90;;;;;;4133106;28;20174;-91
2022/08/11 00:13:12;;;;;;;2.58;1.40;;;23.90;99.90;;;;;;4132613;28;20240;-90
2022/08/11 00:15:13;;;;;;;5.85;1.30;;;23.80;99.90;;;;;;4165356;28;20179;-89
2022/08/11 00:17:15;;;;;;;3.67;1.52;;;23.80;99.90;;;;;;4132675;28;20219;-90
2022/08/11 00:19:21;;;;;;;4.20;1.40;;;23.70;99.90;;;;;;4148840;28;20264;-90
2022/08/11 00:21:25;;;;;;;3.40;1.58;;;23.70;99.90;;;;;;4148720;28;20173;-89
2022/08/11 00:23:26;;;;;;;1.73;1.33;;;23.60;99.90;;;;;;4132412;28;20252;-91
2022/08/11 00:25:28;;;;;;;10.38;1.60;;;23.60;99.90;;;;;;4132958;28;20718;-94
2022/08/11 00:27:37;;;;;;;5.47;1.92;;;23.60;99.90;;;;;;4148820;28;20173;-96
2022/08/11 00:29:38;;;;;;;10.63;1.88;;;23.50;99.90;;;;;;4134446;28;20247;-90
2022/08/11 00:31:51;;;;;;;4.63;1.48;;;23.40;99.90;;;;;;4167307;28;20172;-95
2022/08/11 00:33:52;;;;;;;3.28;1.40;;;23.30;99.90;;;;;;4132843;28;20924;-90
2022/08/11 00:35:58;;;;;;;2.83;1.40;;;23.20;99.90;;;;;;4132394;28;20224;-90
2022/08/11 00:38:00;;;;;;;7.15;1.42;;;23.10;99.90;;;;;;4148918;28;20216;-90
2022/08/11 00:40:04;;;;;;;2.53;1.50;;;23.20;99.90;;;;;;4132998;28;20177;-96
2022/08/11 00:42:41;;;;;;;3.38;1.45;;;23.00;99.90;;;;;;4164953;28;20183;-95
2022/08/11 00:45:07;;;;;;;6.13;1.30;;;23.10;99.90;;;;;;4132428;28;20212;-89
2022/08/11 00:47:18;;;;;;;3.90;1.80;;;22.90;99.90;;;;;;4148430;28;20207;-90
2022/08/11 00:49:32;;;;;;;6.60;1.70;;;22.90;99.90;;;;;;4132336;28;20189;-89
2022/08/11 00:52:07;;;;;;;6.50;1.80;;;22.60;99.90;;;;;;4132288;28;20217;-90
2022/08/11 00:54:49;;;;;;;4.88;1.63;;;22.50;99.90;;;;;;4132201;28;20193;-91
2022/08/11 00:57:16;;;;;;;7.97;1.75;;;22.50;99.90;;;;;;4132173;28;20603;-90
2022/08/11 00:59:54;;;;;;;3.05;1.63;;;22.60;99.90;;;;;;4148824;28;20279;-95
2022/08/11 01:02:15;;;;;;;3.50;1.63;;;22.70;99.90;;;;;;4148453;28;20181;-94
2022/08/11 01:04:43;;;;;;;6.85;1.88;;;22.70;99.90;;;;;;4148797;28;20196;-91
2022/08/11 01:07:30;;;;;;;4.75;1.70;;;22.40;99.90;;;;;;4149011;28;20173;-91
2022/08/11 01:09:52;;;;;;;4.53;1.92;;;22.40;99.90;;;;;;4149078;28;20180;-91
2022/08/11 01:12:08;;;;;;;11.88;1.70;;;22.20;99.90;;;;;;4149373;28;20272;-90
2022/08/11 01:14:54;;;;;;;10.02;1.85;;;22.00;99.90;;;;;;4167923;28;20242;-94
2022/08/11 01:17:00;;;;;;;3.90;1.80;;;21.70;99.90;;;;;;4134116;28;20232;-89
2022/08/11 01:19:20;;;;;;;9.27;2.13;;;21.70;99.90;;;;;;4132464;28;20185;-89
2022/08/11 01:22:16;;;;;;;5.82;1.80;;;21.40;99.90;;;;;;4133214;28;20173;-90
2022/08/11 01:24:38;;;;;;;7.85;2.25;;;21.70;99.90;;;;;;4101470;29;20217;-95
2022/08/11 01:26:53;;;;;;;6.82;1.88;;;21.80;99.90;;;;;;4125942;28;20235;-90
2022/08/11 01:29:16;;;;;;;6.05;1.90;;;22.00;99.90;;;;;;4147889;28;20546;-91
2022/08/11 01:31:23;;;;;;;4.35;1.63;;;21.90;99.90;;;;;;4148005;28;20181;-90
2022/08/11 01:34:00;;;;;;;5.20;1.95;;;21.90;99.90;;;;;;4147936;28;20275;-91
2022/08/11 01:36:52;;;;;;;8.13;2.00;;;22.00;99.90;;;;;;4131462;28;20204;-90
2022/08/11 01:39:03;;;;;;;4.38;2.03;;;22.10;99.90;;;;;;4131792;28;20254;-95
2022/08/11 01:41:22;;;;;;;4.10;1.60;;;22.10;99.90;;;;;;4147832;28;20550;-90
2022/08/11 01:46:23;;;;;;;7.13;1.80;;;22.00;99.90;;;;;;4147872;28;20188;-91
2022/08/11 01:48:48;;;;;;;5.55;1.80;;;22.10;99.90;;;;;;4132299;28;20271;-90
2022/08/11 01:51:33;;;;;;;6.90;2.00;;;22.20;99.90;;;;;;4131783;28;20174;-90
2022/08/11 01:53:36;;;;;;;6.80;1.95;;;22.20;99.90;;;;;;4098617;29;20214;-94
2022/08/11 01:56:11;;;;;;;4.55;1.70;;;22.10;99.90;;;;;;4099468;29;20230;-90
2022/08/11 01:58:25;;;;;;;3.63;1.63;;;22.00;99.90;;;;;;4102460;28;20224;-90
2022/08/11 02:00:30;;;;;;;7.93;2.00;;;21.90;99.90;;;;;;4147952;28;20176;-89
2022/08/11 02:02:46;;;;;;;6.43;2.40;;;21.80;99.90;;;;;;4147664;28;20177;-89
2022/08/11 02:04:58;;;;;;;5.35;1.80;;;21.70;99.90;;;;;;4150541;28;20207;-90
2022/08/11 02:07:11;;;;;;;4.03;1.88;;;21.70;99.90;;;;;;4150949;28;20676;-91
2022/08/11 02:09:32;;;;;;;3.45;2.10;;;21.60;99.90;;;;;;4150892;28;20173;-94
2022/08/11 02:11:36;;;;;;;7.22;2.13;;;21.60;99.90;;;;;;4150849;28;20173;-91
2022/08/11 02:13:53;;;;;;;4.60;2.55;;;21.60;99.90;;;;;;4150689;28;20681;-92
2022/08/11 02:16:08;;;;;;;4.50;2.30;;;21.60;99.90;;;;;;4151065;28;20692;-90
2022/08/11 02:23:38;;;;;;;2.80;1.90;;;21.60;99.90;;;;;;4150793;28;20692;-95
2022/08/11 02:23:38;;;;;;;4.53;1.90;;;21.30;99.90;;;;;;4150888;28;20201;-90
2022/08/11 02:26:04;;;;;;;5.18;2.03;;;21.20;99.90;;;;;;4134911;28;20165;-90
2022/08/11 02:28:10;;;;;;;3.80;1.90;;;21.20;99.90;;;;;;4167078;28;20171;-89
2022/08/11 02:30:16;;;;;;;8.63;2.38;;;21.20;99.90;;;;;;4150491;28;20280;-91
2022/08/11 02:35:02;;;;;;;7.22;1.83;;;21.20;99.90;;;;;;4150448;28;20177;-90
2022/08/11 02:37:14;;;;;;;5.50;2.10;;;21.10;99.90;;;;;;4150503;28;20196;-95
2022/08/11 02:39:18;;;;;;;9.45;2.70;;;21.10;99.90;;;;;;4150621;28;20676;-90
2022/08/11 02:42:24;;;;;;;3.00;1.98;;;21.10;99.90;;;;;;4134295;28;20192;-95
2022/08/11 02:45:03;;;;;;;13.18;2.70;;;21.00;99.90;;;;;;4114977;28;20189;-89
2022/08/11 02:47:14;;;;;;;7.72;1.88;;;21.00;99.90;;;;;;4133777;28;20183;-95
2022/08/11 02:51:54;;;;;;;7.85;2.25;;;20.90;99.90;;;;;;4150380;28;20681;-95
2022/08/11 02:54:40;;;;;;;5.10;2.38;;;20.90;99.90;;;;;;4150263;28;20287;-90
2022/08/11 02:56:45;;;;;;;6.43;2.30;;;20.80;99.90;;;;;;4104399;28;20189;-89
2022/08/11 03:01:39;;;;;;;8.93;2.30;;;20.80;99.90;;;;;;4150039;28;20184;-91
2022/08/11 03:03:54;;;;;;;6.60;2.35;;;20.70;99.90;;;;;;4134080;28;20191;-91
2022/08/11 03:06:11;;;;;;;3.33;2.10;;;20.70;99.90;;;;;;4133475;28;20182;-95
2022/08/11 03:08:56;;;;;;;4.93;2.00;;;20.70;99.90;;;;;;4133859;28;20423;-95
2022/08/11 03:16:51;;;;;;;4.55;2.10;;;20.80;99.90;;;;;;4149849;28;20185;-94
2022/08/11 03:19:30;;;;;;;3.50;1.98;;;20.70;99.90;;;;;;4150047;28;20590;-94
2022/08/11 03:21:38;;;;;;;11.93;2.75;;;20.70;99.90;;;;;;4133633;28;20166;-90
2022/08/11 03:23:49;;;;;;;8.82;2.13;;;20.70;99.90;;;;;;4133886;28;20197;-92
2022/08/11 03:26:23;;;;;;;6.53;2.10;;;20.70;99.90;;;;;;4133869;28;20216;-95
2022/08/11 03:28:27;;;;;;;8.77;2.88;;;20.70;99.90;;;;;;4149941;28;20534;-94
2022/08/11 03:30:54;;;;;;;5.35;2.20;;;20.70;99.90;;;;;;4133778;28;20309;-92
2022/08/11 03:35:31;;;;;;;4.75;2.33;;;20.70;99.90;;;;;;4149692;28;20275;-94
2022/08/11 03:38:01;;;;;;;3.58;2.30;;;20.60;99.90;;;;;;4149862;28;20782;-94
2022/08/11 03:43:46;;;;;;;4.70;2.20;;;20.60;99.90;;;;;;4120098;28;20224;-91
2022/08/11 03:46:11;;;;;;;7.57;2.70;;;20.60;99.90;;;;;;4133306;28;20261;-92
2022/08/11 03:48:38;;;;;;;5.45;2.35;;;20.40;99.90;;;;;;4165844;28;20215;-92
2022/08/11 03:51:10;;;;;;;7.20;2.70;;;20.30;99.90;;;;;;4133371;28;20240;-95
2022/08/11 03:53:55;;;;;;;10.02;2.30;;;20.20;99.90;;;;;;4149360;28;20196;-95
2022/08/11 03:56:23;;;;;;;10.43;2.40;;;20.20;99.90;;;;;;4146142;28;20196;-91
2022/08/11 03:58:39;;;;;;;10.30;2.47;;;20.20;99.90;;;;;;4149165;28;20227;-96
2022/08/11 04:01:17;;;;;;;11.57;2.60;;;20.20;99.90;;;;;;4133177;28;20176;-90
2022/08/11 04:03:35;;;;;;;7.00;2.63;;;20.10;99.90;;;;;;4149067;28;20712;-92
2022/08/11 04:05:57;;;;;;;9.80;2.67;;;20.00;99.90;;;;;;4149198;28;20173;-93
2022/08/11 04:08:10;;;;;;;14.95;2.78;;;20.00;99.90;;;;;;4132903;28;20184;-90
2022/08/11 04:10:46;;;;;;;7.00;2.47;;;19.90;99.90;;;;;;4165763;28;20183;-91
2022/08/11 04:13:07;;;;;;;6.80;2.38;;;19.80;99.90;;;;;;4133762;28;20574;-93
2022/08/11 04:16:01;;;;;;;5.80;2.75;;;19.80;99.90;;;;;;4151392;28;20180;-91
2022/08/11 04:18:19;;;;;;;6.55;2.70;;;19.70;99.90;;;;;;4136166;28;20247;-91
2022/08/11 04:20:56;;;;;;;11.35;3.10;;;19.60;99.90;;;;;;4152830;28;20238;-94
2022/08/11 04:23:34;;;;;;;21.45;3.47;;;19.60;99.90;;;;;;4151139;28;20644;-90
2022/08/11 04:26:09;;;;;;;6.68;2.65;;;19.60;99.90;;;;;;4150347;28;20181;-95
2022/08/11 04:28:36;;;;;;;5.97;2.50;;;19.70;99.90;;;;;;4149674;28;20679;-95
2022/08/11 04:31:15;;;;;;;6.75;2.80;;;19.80;99.90;;;;;;4133057;28;20173;-92
2022/08/11 04:33:53;;;;;;;8.65;3.05;;;19.80;99.90;;;;;;4165378;28;20195;-93
2022/08/11 04:36:15;;;;;;;7.55;2.92;;;19.90;99.90;;;;;;4149416;28;20192;-94
2022/08/11 04:38:33;;;;;;;16.63;3.47;;;19.70;99.90;;;;;;4133874;28;20213;-96
2022/08/11 04:40:59;;;;;;;15.82;3.42;;;19.70;99.90;;;;;;4149711;28;20267;-90
2022/08/11 04:43:37;;;;;;;13.25;3.47;;;19.70;99.90;;;;;;4149900;28;20275;-93
2022/08/11 04:45:56;;;;;;;16.65;3.40;;;19.60;99.90;;;;;;4133231;28;20251;-91
2022/08/11 05:03:57;;;;;;;19.83;4.32;;;19.30;99.90;;;;;;4144024;28;20199;-93
2022/08/11 05:06:13;;;;;;;12.23;3.42;;;19.30;99.90;;;;;;4148867;28;20283;-91
2022/08/11 05:08:51;;;;;;;6.93;3.30;;;19.30;99.90;;;;;;4149865;28;20663;-89
2022/08/11 05:11:11;;;;;;;7.40;3.28;;;19.20;99.90;;;;;;4133089;28;20561;-92
2022/08/11 05:35:50;;;;;;;30.00;4.85;;;19.00;99.90;;;;;;4150609;28;20184;-94
2022/08/11 05:57:03;;;;;;;10.45;3.58;;;19.40;99.90;;;;;;4157723;28;20173;-91
2022/08/11 05:59:11;;;;;;;9.38;3.70;;;19.40;99.90;;;;;;4155838;28;20172;-95
2022/08/11 06:01:31;;;;;;;12.50;4.00;;;19.50;99.90;;;;;;4158082;28;20244;-95
2022/08/11 06:04:12;;;;;;;16.83;3.85;;;19.70;99.90;;;;;;4140765;28;20201;-94
2022/08/11 06:05:57;;;;;;;10.02;4.07;;;19.90;99.90;;;;;;4176288;28;20199;-91
2022/08/11 06:07:58;;;;;;;10.50;3.70;;;20.00;99.90;;;;;;4143232;28;20166;-94
2022/08/11 06:09:59;;;;;;;9.45;4.32;;;19.90;99.90;;;;;;4140401;28;20181;-91
2022/08/11 06:12:05;;;;;;;16.02;3.65;;;20.00;99.90;;;;;;4157517;28;20217;-91
2022/08/11 06:14:07;;;;;;;10.55;3.95;;;20.10;99.90;;;;;;4158869;28;20257;-92
2022/08/11 06:16:08;;;;;;;19.55;4.90;;;20.20;99.90;;;;;;4156192;28;20633;-91
2022/08/11 06:18:11;;;;;;;15.90;3.28;;;20.30;99.90;;;;;;4139476;28;20197;-91
2022/08/11 06:20:15;;;;;;;9.48;3.28;;;20.30;99.90;;;;;;4172760;28;20164;-95
2022/08/11 06:22:20;;;;;;;11.90;3.92;;;20.50;99.90;;;;;;4154482;28;20612;-93
2022/08/11 06:24:21;;;;;;;10.55;4.03;;;20.60;99.90;;;;;;4153896;28;20208;-95
2022/08/11 06:26:22;;;;;;;9.05;3.50;;;20.70;99.90;;;;;;4139635;28;20238;-91
2022/08/11 06:28:36;;;;;;;11.30;3.80;;;20.70;99.90;;;;;;4154906;28;20180;-92
2022/08/11 06:30:39;;;;;;;9.23;3.40;;;20.90;99.90;;;;;;4156982;28;20581;-91
2022/08/11 06:32:44;;;;;;;13.00;4.15;;;20.80;99.90;;;;;;4155163;28;20205;-95
2022/08/11 06:35:10;;;;;;;5.40;3.50;;;20.80;99.90;;;;;;4156050;28;20217;-91
2022/08/11 06:37:30;;;;;;;10.32;3.50;;;21.00;99.90;;;;;;4160549;28;20238;-96
2022/08/11 06:39:55;;;;;;;6.20;3.40;;;21.20;99.90;;;;;;4156588;28;20184;-92
2022/08/11 06:42:07;;;;;;;11.05;3.78;;;21.20;99.90;;;;;;4143764;28;20234;-92
2022/08/11 06:44:31;;;;;;;13.88;3.90;;;21.40;99.90;;;;;;4173801;28;20688;-91
2022/08/11 06:46:38;;;;;;;11.60;3.70;;;21.50;99.90;;;;;;4143334;28;20213;-93
2022/08/11 06:49:01;;;;;;;14.52;3.90;;;21.80;99.90;;;;;;4161136;28;20159;-92
2022/08/11 06:51:11;;;;;;;7.40;2.97;;;21.90;99.90;;;;;;4143467;28;20178;-93
2022/08/11 06:53:16;;;;;;;12.50;3.33;;;21.90;99.90;;;;;;4145351;28;20213;-92
2022/08/11 07:00:27;;;;;;;14.93;3.20;;;22.20;99.90;;;;;;4160918;28;20177;-95
2022/08/11 07:02:36;;;;;;;12.93;3.55;;;22.50;99.90;;;;;;4163139;28;20177;-96
2022/08/11 07:04:52;;;;;;;12.30;3.67;;;22.60;99.90;;;;;;4145306;28;20170;-94
2022/08/11 07:15:40;;;;;;;11.07;3.58;;;22.80;99.90;;;;;;4143656;28;20173;-94
2022/08/11 07:17:18;;;;;;;7.70;2.90;;;23.40;99.90;;;;;;4156605;28;20561;-94
2022/08/11 07:28:54;;;;;;;10.95;3.28;;;29.20;99.90;;;;;;4150751;28;20200;-94
2022/08/11 07:31:05;;;;;;;14.85;3.40;;;29.70;99.90;;;;;;4150727;28;20176;-96
2022/08/11 07:33:07;;;;;;;8.88;3.05;;;29.80;99.90;;;;;;4134291;28;20193;-93
2022/08/11 07:35:15;;;;;;;17.15;3.83;;;30.40;99.90;;;;;;4133876;28;20169;-95
2022/08/11 07:37:19;;;;;;;10.55;3.17;;;30.70;99.90;;;;;;4149922;28;20286;-95
2022/08/11 07:39:47;;;;;;;9.70;2.97;;;31.30;99.90;;;;;;4133735;28;20188;-95
2022/08/11 07:41:50;;;;;;;10.27;2.78;;;32.10;99.90;;;;;;4147547;28;20197;-95
2022/08/11 07:44:07;;;;;;;12.70;3.17;;;32.10;99.90;;;;;;4149492;28;20346;-93
2022/08/11 07:53:12;;;;;;;6.35;3.00;;;32.70;99.90;;;;;;4149171;28;20247;-94
2022/08/11 07:55:15;;;;;;;12.07;3.00;;;32.70;99.90;;;;;;4149325;28;20173;-95
2022/08/11 08:18:18;;;;;;;10.50;2.65;;;32.90;99.90;;;;;;4149251;28;20192;-95
2022/08/11 08:20:21;;;;;;;12.00;2.63;;;32.40;99.90;;;;;;4133147;28;20174;-95
2022/08/11 08:22:23;;;;;;;10.80;2.70;;;32.00;99.90;;;;;;4148915;28;20181;-94
2022/08/11 08:24:24;;;;;;;10.52;2.60;;;31.70;99.90;;;;;;4149120;28;20181;-92
2022/08/11 08:28:45;;;;;;;5.03;2.75;;;32.00;99.90;;;;;;4149330;28;20216;-94
2022/08/11 08:30:50;;;;;;;8.45;2.67;;;31.90;99.90;;;;;;4149533;28;20173;-95
2022/08/11 08:32:52;;;;;;;9.32;2.58;;;31.90;99.90;;;;;;4149165;28;20282;-94
2022/08/11 08:34:55;;;;;;;8.23;2.75;;;32.10;99.90;;;;;;4133609;28;20170;-95
2022/08/11 08:36:57;;;;;;;9.15;2.35;;;31.90;99.90;;;;;;4150407;28;20169;-94
2022/08/11 08:38:57;;;;;;;5.45;2.55;;;31.70;99.90;;;;;;4134173;28;20213;-94
2022/08/11 08:40:59;;;;;;;20.15;2.72;;;31.60;99.90;;;;;;4134577;28;20184;-93
2022/08/11 08:43:10;;;;;;;7.25;2.40;;;31.70;99.90;;;;;;4150144;28;20312;-94
2022/08/11 08:45:15;;;;;;;6.88;2.25;;;32.00;99.90;;;;;;4163185;28;20177;-95
2022/08/11 08:47:18;;;;;;;7.38;2.47;;;32.00;99.90;;;;;;4168480;28;20219;-95
2022/08/11 08:49:32;;;;;;;8.63;2.78;;;31.90;99.90;;;;;;4149266;28;20184;-95
2022/08/11 08:51:37;;;;;;;7.47;2.60;;;32.10;99.90;;;;;;4163752;28;20167;-95
2022/08/11 08:53:45;;;;;;;8.32;2.58;;;32.50;99.90;;;;;;4150204;28;20188;-95
2022/08/11 08:55:47;;;;;;;5.95;2.50;;;33.30;99.90;;;;;;4149258;28;20173;-95
2022/08/11 08:57:51;;;;;;;7.95;2.40;;;33.50;99.90;;;;;;4165637;28;20172;-95
2022/08/11 08:59:52;;;;;;;7.72;2.85;;;33.80;99.90;;;;;;4132538;28;20184;-95
2022/08/11 09:02:04;;;;;;;7.75;2.50;;;33.70;99.90;;;;;;4149036;28;20168;-95
2022/08/11 09:04:09;;;;;;;4.00;2.10;;;33.10;99.90;;;;;;4149114;28;20196;-95
2022/08/11 09:06:13;;;;;;;5.15;2.10;;;33.40;99.90;;;;;;4148694;28;20168;-96
2022/08/11 09:08:18;;;;;;;10.85;2.72;;;33.50;99.90;;;;;;4148520;28;20712;-96
2022/08/11 09:10:20;;;;;;;8.82;2.53;;;33.10;99.50;;;;;;4148400;28;20181;-96
2022/08/11 09:12:25;;;;;;;7.82;2.50;;;33.40;99.30;;;;;;4148604;28;20181;-94
2022/08/11 09:16:52;;;;;;;7.38;2.50;;;33.30;99.10;;;;;;4165648;28;20637;-94
2022/08/11 09:18:54;;;;;;;6.93;2.40;;;33.50;98.80;;;;;;4149664;28;20160;-95
2022/08/11 09:20:55;;;;;;;8.75;2.53;;;33.70;98.30;;;;;;4132580;28;20228;-94
2022/08/11 09:27:39;;;;;;;6.70;2.17;;;33.90;98.60;;;;;;4148543;28;20212;-95
2022/08/11 09:29:40;;;;;;;6.95;2.60;;;33.50;98.60;;;;;;4148764;28;20203;-94
2022/08/11 09:31:41;;;;;;;5.22;2.15;;;33.50;98.30;;;;;;4132201;28;20200;-95
2022/08/11 09:33:43;;;;;;;3.58;2.35;;;33.40;98.40;;;;;;4148368;28;20192;-95
2022/08/11 09:35:46;;;;;;;3.70;2.42;;;33.40;98.40;;;;;;4148950;28;20731;-94
2022/08/11 09:40:28;;;;;;;13.50;2.63;;;34.00;98.20;;;;;;4148758;28;20254;-96
2022/08/11 09:44:49;;;;;;;5.40;3.10;;;33.30;97.60;;;;;;4148486;28;20169;-94
2022/08/11 09:46:51;;;;;;;12.75;2.47;;;32.90;97.60;;;;;;4148142;28;20645;-95
2022/08/11 09:48:55;;;;;;;5.20;2.47;;;32.70;98.80;;;;;;4132123;28;20224;-93
2022/08/11 09:50:59;;;;;;;5.35;2.28;;;33.50;98.60;;;;;;4164734;28;20167;-94
2022/08/11 09:53:05;;;;;;;4.72;2.25;;;33.70;97.40;;;;;;4132150;28;20284;-93
2022/08/11 09:55:09;;;;;;;5.18;2.13;;;33.80;97.30;;;;;;4148011;28;20172;-93
2022/08/11 09:59:31;;;;;;;11.77;2.47;;;32.80;97.50;;;;;;4148251;28;20173;-95
2022/08/11 10:01:43;;;;;;;5.72;2.05;;;32.40;98.40;;;;;;4148196;28;20173;-93
2022/08/11 10:03:45;;;;;;;5.35;2.15;;;31.90;98.30;;;;;;4147892;28;20258;-94
2022/08/11 10:08:20;;;;;;;7.50;2.13;;;32.10;98.10;;;;;;4147951;28;20256;-94
2022/08/11 10:10:21;;;;;;;6.05;2.38;;;32.40;97.40;;;;;;4147898;28;20295;-95
2022/08/11 10:12:34;;;;;;;20.52;2.60;;;32.30;97.80;;;;;;4131375;28;20185;-95
2022/08/11 10:17:07;;;;;;;10.70;2.63;;;32.30;98.00;;;;;;4148226;28;20227;-94
2022/08/11 10:19:09;;;;;;;4.47;2.17;;;32.60;97.50;;;;;;4131830;28;20209;-93
2022/08/11 10:21:17;;;;;;;9.15;2.15;;;32.50;97.50;;;;;;4164548;28;20176;-93
2022/08/11 10:27:59;;;;;;;6.35;2.35;;;31.40;98.30;;;;;;4152118;28;20578;-93
2022/08/11 10:34:49;;;;;;;8.18;2.40;;;31.10;98.50;;;;;;4167206;28;20172;-93
2022/08/11 10:36:50;;;;;;;9.18;2.35;;;31.00;98.50;;;;;;4134577;28;20181;-93
2022/08/11 10:38:51;;;;;;;5.10;2.50;;;31.00;98.50;;;;;;4134448;28;20173;-96
2022/08/11 10:43:01;;;;;;;3.80;2.13;;;30.70;98.50;;;;;;4150521;28;20188;-93
2022/08/11 10:43:14;;;;;;;8.88;2.53;;;30.70;99.10;;;;;;4150496;28;20666;-92
2022/08/11 10:47:38;;;;;;;8.50;2.10;;;30.60;99.00;;;;;;4150608;28;20240;-94
2022/08/11 10:49:39;;;;;;;4.95;2.47;;;30.60;98.50;;;;;;4134711;28;20297;-96
2022/08/11 10:58:49;;;;;;;4.05;2.20;;;30.90;99.30;;;;;;4166333;28;20192;-93
2022/08/11 11:00:55;;;;;;;7.80;2.15;;;30.60;99.20;;;;;;4150260;28;20165;-95
2022/08/11 11:02:59;;;;;;;6.15;2.17;;;30.80;99.20;;;;;;4133940;28;20247;-91
2022/08/11 11:05:18;;;;;;;7.07;2.45;;;30.80;98.50;;;;;;4150096;28;20735;-94
2022/08/11 11:07:29;;;;;;;9.77;2.63;;;30.90;98.20;;;;;;4150058;28;20270;-93
2022/08/11 11:09:42;;;;;;;8.88;2.55;;;31.00;98.20;;;;;;4150174;28;20181;-94
2022/08/11 11:19:04;;;;;;;4.03;2.10;;;30.90;98.50;;;;;;4150096;28;20180;-93
2022/08/11 11:21:13;;;;;;;9.75;2.45;;;30.90;98.40;;;;;;4150049;28;20188;-95
2022/08/11 11:23:22;;;;;;;12.40;2.42;;;31.10;98.70;;;;;;4150108;28;20196;-95
2022/08/11 11:25:37;;;;;;;11.00;2.35;;;31.30;98.20;;;;;;4150203;28;20180;-94
2022/08/11 11:27:53;;;;;;;6.55;2.30;;;31.50;98.50;;;;;;4133743;28;20209;-95
2022/08/11 11:30:14;;;;;;;7.28;2.33;;;31.50;98.50;;;;;;4150062;28;20188;-94
2022/08/11 11:32:34;;;;;;;7.18;2.40;;;31.30;98.40;;;;;;4133283;28;20678;-94
2022/08/11 11:34:46;;;;;;;8.02;2.40;;;31.20;98.40;;;;;;4133453;28;20185;-92
2022/08/11 11:36:55;;;;;;;10.80;2.17;;;31.70;98.40;;;;;;4166035;28;20271;-93
2022/08/11 11:38:57;;;;;;;5.18;2.17;;;31.50;98.00;;;;;;4133899;28;20176;-94
2022/08/11 11:43:18;;;;;;;7.50;2.10;;;31.50;97.90;;;;;;4150129;28;20204;-94
2022/08/11 11:45:24;;;;;;;11.90;2.92;;;31.60;96.90;;;;;;4149838;28;20188;-94
2022/08/11 11:47:25;;;;;;;5.88;2.15;;;31.70;98.00;;;;;;4133619;28;20196;-94
2022/08/11 11:49:31;;;;;;;7.30;2.25;;;31.60;98.10;;;;;;4149638;28;20665;-93
2022/08/11 11:51:32;;;;;;;5.15;2.20;;;31.90;97.00;;;;;;4151780;28;20216;-94
2022/08/11 11:53:34;;;;;;;10.35;2.20;;;32.30;97.40;;;;;;4133250;28;20204;-94
2022/08/11 11:55:36;;;;;;;3.80;2.25;;;32.00;96.50;;;;;;4149556;28;20176;-95
2022/08/11 12:02:20;;;;;;;4.38;2.55;;;31.70;97.40;;;;;;4121845;28;20231;-93
2022/08/11 12:04:22;;;;;;;6.10;2.13;;;31.80;96.80;;;;;;4149566;28;20184;-94
2022/08/11 12:06:24;;;;;;;8.60;2.50;;;31.60;96.50;;;;;;4133196;28;20639;-93
2022/08/11 12:08:26;;;;;;;5.72;2.10;;;31.80;96.20;;;;;;4166132;28;20215;-94
2022/08/11 12:10:28;;;;;;;5.22;2.28;;;31.90;96.90;;;;;;4149338;28;20633;-94
2022/08/11 12:14:51;;;;;;;5.47;2.42;;;32.00;96.80;;;;;;4149200;28;20176;-94
2022/08/11 12:16:55;;;;;;;6.20;2.38;;;31.90;97.70;;;;;;4149055;28;20275;-95
2022/08/11 12:18:58;;;;;;;8.07;2.63;;;31.80;97.30;;;;;;4149099;28;20227;-94
2022/08/11 12:21:03;;;;;;;4.65;2.30;;;31.70;96.70;;;;;;4132557;28;20166;-94
2022/08/11 12:27:43;;;;;;;4.88;1.83;;;32.20;96.00;;;;;;4149205;28;20246;-94
2022/08/11 12:29:47;;;;;;;6.00;2.17;;;32.10;95.60;;;;;;4149171;28;20630;-93
2022/08/11 12:31:48;;;;;;;3.92;2.15;;;32.10;95.50;;;;;;4148862;28;20577;-94
2022/08/11 12:33:49;;;;;;;4.30;2.30;;;32.30;95.90;;;;;;4132398;28;20193;-95
2022/08/11 12:35:56;;;;;;;8.20;2.42;;;32.30;95.50;;;;;;4148917;28;20172;-93
2022/08/11 12:38:01;;;;;;;7.07;2.33;;;32.30;96.50;;;;;;4148769;28;20172;-95
2022/08/11 12:47:18;;;;;;;8.38;2.42;;;32.40;95.90;;;;;;4148023;28;20200;-94
2022/08/11 12:51:57;;;;;;;4.10;2.28;;;32.30;95.80;;;;;;4148579;28;20173;-95
2022/08/11 12:54:12;;;;;;;5.55;2.50;;;32.30;95.70;;;;;;4148845;28;20688;-95
2022/08/11 12:58:36;;;;;;;9.00;2.35;;;32.50;95.30;;;;;;4148620;28;20216;-95
2022/08/11 13:05:17;;;;;;;4.95;2.35;;;32.00;95.40;;;;;;4148357;28;20242;-93
2022/08/11 13:07:18;;;;;;;3.58;2.08;;;32.40;95.20;;;;;;4148383;28;20211;-92
2022/08/11 13:09:19;;;;;;;6.43;2.20;;;32.30;95.40;;;;;;4132244;28;20185;-95
2022/08/11 13:13:42;;;;;;;5.03;2.42;;;32.10;95.30;;;;;;4148559;28;20197;-94
2022/08/11 13:15:45;;;;;;;5.80;2.25;;;32.20;95.40;;;;;;4148711;28;20252;-94
2022/08/11 13:17:49;;;;;;;3.33;2.38;;;32.60;95.50;;;;;;4148546;28;20238;-94
2022/08/11 13:19:52;;;;;;;5.03;2.10;;;33.10;96.00;;;;;;4148463;28;20211;-95
2022/08/11 13:21:53;;;;;;;5.30;2.33;;;33.00;94.40;;;;;;4132383;28;20235;-95
2022/08/11 13:23:55;;;;;;;3.15;2.10;;;32.70;94.80;;;;;;4148249;28;20569;-94
2022/08/11 13:25:56;;;;;;;5.95;2.25;;;32.60;94.70;;;;;;4148140;28;20176;-93
2022/08/11 13:27:58;;;;;;;4.70;2.28;;;32.60;94.80;;;;;;4131953;28;20216;-96
2022/08/11 13:32:20;;;;;;;3.33;2.42;;;32.90;95.00;;;;;;4148030;28;20212;-93
2022/08/11 13:34:25;;;;;;;5.20;2.20;;;32.60;93.00;;;;;;4132469;28;20594;-93
2022/08/11 13:36:27;;;;;;;2.10;1.90;;;32.70;94.40;;;;;;4132636;28;20750;-95
2022/08/11 13:38:30;;;;;;;4.75;2.70;;;33.10;93.50;;;;;;4132216;28;20235;-94
2022/08/11 13:40:32;;;;;;;6.22;1.92;;;33.50;94.00;;;;;;4148433;28;20181;-93
2022/08/11 13:42:33;;;;;;;5.10;2.50;;;33.50;93.70;;;;;;4148031;28;20681;-94
2022/08/11 13:44:36;;;;;;;5.10;2.33;;;33.20;93.40;;;;;;4132053;28;20177;-94
2022/08/11 13:46:39;;;;;;;2.97;2.17;;;33.20;93.70;;;;;;4147960;28;20184;-93
2022/08/11 13:48:41;;;;;;;5.00;2.20;;;33.10;94.00;;;;;;4148323;28;20212;-94
2022/08/11 13:53:04;;;;;;;5.95;2.10;;;32.90;93.20;;;;;;4167587;28;20203;-89
2022/08/11 13:55:09;;;;;;;2.30;1.88;;;32.70;93.70;;;;;;4148704;28;20177;-89
2022/08/11 13:57:13;;;;;;;4.03;1.90;;;32.40;92.90;;;;;;4164925;28;20225;-91
2022/08/11 13:59:19;;;;;;;5.50;1.90;;;32.40;93.50;;;;;;4151077;28;20168;-89
2022/08/11 14:01:21;;;;;;;6.63;1.70;;;32.60;93.70;;;;;;4153571;28;20267;-89
2022/08/11 14:03:27;;;;;;;3.88;2.15;;;33.00;92.90;;;;;;4169301;28;20220;-89
2022/08/11 14:05:35;;;;;;;4.32;2.10;;;33.10;92.70;;;;;;4153290;28;20215;-89
2022/08/11 14:07:46;;;;;;;4.57;2.00;;;33.20;93.70;;;;;;4152537;28;20311;-89
2022/08/11 14:09:50;;;;;;;4.03;2.08;;;33.10;93.10;;;;;;4152543;28;20169;-88
2022/08/11 14:14:22;;;;;;;4.22;1.92;;;33.30;93.10;;;;;;4156538;28;20728;-89
2022/08/11 14:16:31;;;;;;;5.65;2.25;;;33.20;92.50;;;;;;4152325;28;20173;-90
2022/08/11 14:18:33;;;;;;;4.85;1.80;;;33.00;92.40;;;;;;4172372;28;20267;-89
2022/08/11 14:22:58;;;;;;;5.72;1.73;;;33.30;93.80;;;;;;4168207;28;20235;-90
2022/08/11 14:25:00;;;;;;;3.50;1.70;;;33.40;93.40;;;;;;4153006;28;20180;-87
2022/08/11 14:27:02;;;;;;;3.45;2.00;;;33.40;92.90;;;;;;4151695;28;20557;-89
2022/08/11 14:29:16;;;;;;;5.75;1.90;;;33.20;93.10;;;;;;4135153;28;20308;-90
2022/08/11 14:31:18;;;;;;;38.70;3.20;;;33.00;92.10;;;;;;4167828;28;20259;-89
2022/08/11 14:33:18;;;;;;;4.00;2.05;;;33.10;92.50;;;;;;4151190;28;20200;-89
2022/08/11 14:35:19;;;;;;;8.43;1.90;;;33.10;92.40;;;;;;4151096;28;20173;-90
2022/08/11 14:37:23;;;;;;;5.07;2.13;;;33.40;91.70;;;;;;4151001;28;20180;-89
2022/08/11 14:39:31;;;;;;;4.90;2.00;;;33.30;92.20;;;;;;4167038;28;20200;-89
2022/08/11 14:48:36;;;;;;;5.45;2.08;;;32.80;91.80;;;;;;4167232;28;20223;-88
2022/08/11 14:50:38;;;;;;;4.35;2.10;;;32.60;92.50;;;;;;4150862;28;20177;-89
2022/08/11 14:52:46;;;;;;;6.97;2.13;;;32.40;92.40;;;;;;4150768;28;20271;-89
2022/08/11 14:57:10;;;;;;;13.10;2.25;;;32.50;92.90;;;;;;4168035;28;20183;-89
2022/08/11 14:59:12;;;;;;;6.20;2.00;;;32.50;93.30;;;;;;4151687;28;20169;-89
2022/08/11 15:03:33;;;;;;;4.63;2.00;;;32.70;92.40;;;;;;4167938;28;20188;-89
2022/08/11 15:05:35;;;;;;;5.35;1.67;;;32.80;93.20;;;;;;4151350;28;20180;-88
2022/08/11 15:07:37;;;;;;;4.95;2.20;;;32.90;93.50;;;;;;4150542;28;20266;-89
2022/08/11 15:09:42;;;;;;;3.67;1.70;;;32.90;92.40;;;;;;4150246;28;20200;-89
2022/08/11 15:14:06;;;;;;;7.10;2.15;;;33.10;92.20;;;;;;4166867;28;20200;-89
2022/08/11 15:18:26;;;;;;;5.38;2.00;;;33.00;92.50;;;;;;4166809;28;20180;-89
2022/08/11 15:25:08;;;;;;;4.15;2.20;;;32.50;93.40;;;;;;4166547;28;20183;-88